createdAt,value
2022-10-21T00:00:33.342Z,9.1
2022-10-21T00:01:36.447Z,9.1
2022-10-21T00:02:41.642Z,9.1
2022-10-21T00:03:44.273Z,9.1
2022-10-21T00:04:47.975Z,9.1
2022-10-21T00:05:51.092Z,9.1
2022-10-21T00:06:53.682Z,9.2
2022-10-21T00:07:56.577Z,9.1
2022-10-21T00:09:00.482Z,9.1
2022-10-21T00:10:04.335Z,9.2
2022-10-21T00:11:07.547Z,9.2
2022-10-21T00:12:10.982Z,9.2
2022-10-21T00:13:14.127Z,9.2
2022-10-21T00:14:17.510Z,9.2
2022-10-21T00:15:20.091Z,9.1
2022-10-21T00:16:23.067Z,9.2
2022-10-21T00:17:26.166Z,9.2
2022-10-21T00:18:28.881Z,9.2
2022-10-21T00:19:31.749Z,9.2
2022-10-21T00:20:40.962Z,9.2
2022-10-21T00:21:44.024Z,9.2
2022-10-21T00:22:46.897Z,9.1
2022-10-21T00:23:49.905Z,9.2
2022-10-21T00:24:53.953Z,9.2
2022-10-21T00:25:57.779Z,9.1
2022-10-21T00:27:00.511Z,9.1
2022-10-21T00:28:03.574Z,9.1
2022-10-21T00:29:06.025Z,9.1
2022-10-21T00:30:08.739Z,9.1
2022-10-21T00:31:11.336Z,9.1
2022-10-21T00:32:13.826Z,9.1
2022-10-21T00:33:16.339Z,9.1
2022-10-21T00:34:18.850Z,9.1
2022-10-21T00:35:21.087Z,9.1
2022-10-21T00:36:23.880Z,9.1
2022-10-21T00:37:26.319Z,9.1
2022-10-21T00:38:28.829Z,9.1
2022-10-21T00:39:31.939Z,9.1
2022-10-21T00:40:34.782Z,9.1
2022-10-21T00:41:38.187Z,9.1
2022-10-21T00:42:49.631Z,9.1
2022-10-21T00:43:52.844Z,9.1
2022-10-21T00:44:55.337Z,9.1
2022-10-21T00:45:58.465Z,9.1
2022-10-21T00:47:01.125Z,9.1
2022-10-21T00:48:04.506Z,9.1
2022-10-21T00:49:07.428Z,9
2022-10-21T00:50:09.657Z,9
2022-10-21T00:51:12.817Z,9
2022-10-21T00:52:15.811Z,9
2022-10-21T00:53:18.799Z,9
2022-10-21T00:54:21.036Z,9
2022-10-21T00:55:24.401Z,9
2022-10-21T00:56:27.887Z,8.9
2022-10-21T00:57:31.305Z,8.9
2022-10-21T00:58:34.057Z,9
2022-10-21T00:59:35.742Z,9
2022-10-21T01:00:39.220Z,9
2022-10-21T01:01:42.626Z,9
2022-10-21T01:02:45.307Z,8.9
2022-10-21T01:03:49.050Z,8.9
2022-10-21T01:04:51.958Z,8.9
2022-10-21T01:05:55.033Z,8.9
2022-10-21T01:06:58.093Z,8.9
2022-10-21T01:08:00.555Z,8.9
2022-10-21T01:09:03.513Z,8.9
2022-10-21T01:10:06.393Z,8.9
2022-10-21T01:11:09.864Z,8.9
2022-10-21T01:12:13.340Z,8.9
2022-10-21T01:13:16.903Z,8.9
2022-10-21T01:14:20.645Z,8.9
2022-10-21T01:15:24.439Z,8.8
2022-10-21T01:16:27.608Z,8.9
2022-10-21T01:17:49.419Z,8.8
2022-10-21T01:18:53.517Z,8.8
2022-10-21T01:19:56.506Z,8.8
2022-10-21T01:20:59.293Z,8.8
2022-10-21T01:22:02.283Z,8.8
2022-10-21T01:23:04.717Z,8.8
2022-10-21T01:24:07.648Z,8.8
2022-10-21T01:25:11.092Z,8.8
2022-10-21T01:26:14.528Z,8.8
2022-10-21T01:27:17.723Z,8.7
2022-10-21T01:28:20.941Z,8.6
2022-10-21T01:29:24.657Z,8.6
2022-10-21T01:30:27.162Z,8.7
2022-10-21T01:31:29.681Z,8.6
2022-10-21T01:32:31.827Z,8.7
2022-10-21T01:33:34.897Z,8.7
2022-10-21T01:34:37.695Z,8.7
2022-10-21T01:35:40.603Z,8.7
2022-10-21T01:36:43.947Z,8.7
2022-10-21T01:37:47.107Z,8.7
2022-10-21T01:38:50.566Z,8.7
2022-10-21T01:39:54.019Z,8.7
2022-10-21T01:40:57.663Z,8.6
2022-10-21T01:42:01.475Z,8.6
2022-10-21T01:43:04.808Z,8.6
2022-10-21T01:44:08.559Z,8.6
2022-10-21T01:45:11.573Z,8.6
2022-10-21T01:46:14.117Z,8.6
2022-10-21T01:47:16.544Z,8.6
2022-10-21T01:48:19.253Z,8.6
2022-10-21T01:49:21.960Z,8.6
2022-10-21T01:50:24.836Z,8.6
2022-10-21T01:51:27.336Z,8.6
2022-10-21T01:52:29.574Z,8.6
2022-10-21T01:53:33.023Z,8.6
2022-10-21T01:54:36.133Z,8.6
2022-10-21T01:55:39.189Z,8.6
2022-10-21T01:56:42.054Z,8.6
2022-10-21T01:57:45.494Z,8.6
2022-10-21T01:58:48.607Z,8.6
2022-10-21T01:59:52.156Z,8.6
2022-10-21T02:00:55.851Z,8.6
2022-10-21T02:01:58.492Z,8.5
2022-10-21T02:03:01.360Z,8.5
2022-10-21T02:04:04.515Z,8.6
2022-10-21T02:05:07.315Z,8.5
2022-10-21T02:06:10.666Z,8.5
2022-10-21T02:07:13.681Z,8.5
2022-10-21T02:08:16.493Z,8.5
2022-10-21T02:09:19.518Z,8.5
2022-10-21T02:10:21.754Z,8.5
2022-10-21T02:11:24.277Z,8.5
2022-10-21T02:12:27.239Z,8.5
2022-10-21T02:13:30.683Z,8.5
2022-10-21T02:14:34.077Z,8.6
2022-10-21T02:15:37.835Z,8.5
2022-10-21T02:16:40.927Z,8.5
2022-10-21T02:17:43.806Z,8.5
2022-10-21T02:18:47.093Z,8.6
2022-10-21T02:19:49.531Z,8.5
2022-10-21T02:20:52.951Z,8.5
2022-10-21T02:21:56.116Z,8.5
2022-10-21T02:22:58.830Z,8.5
2022-10-21T02:24:01.999Z,8.5
2022-10-21T02:25:05.162Z,8.5
2022-10-21T02:26:07.678Z,8.5
2022-10-21T02:27:11.022Z,8.4
2022-10-21T02:28:13.995Z,8.5
2022-10-21T02:29:16.888Z,8.5
2022-10-21T02:30:20.356Z,8.4
2022-10-21T02:31:23.820Z,8.4
2022-10-21T02:32:26.988Z,8.5
2022-10-21T02:33:29.659Z,8.5
2022-10-21T02:34:32.649Z,8.5
2022-10-21T02:35:35.712Z,8.5
2022-10-21T02:36:38.784Z,8.5
2022-10-21T02:37:41.898Z,8.5
2022-10-21T02:38:45.192Z,8.5
2022-10-21T02:39:48.351Z,8.5
2022-10-21T02:40:51.614Z,8.5
2022-10-21T02:41:54.486Z,8.5
2022-10-21T02:42:57.834Z,8.5
2022-10-21T02:44:00.626Z,8.5
2022-10-21T02:45:03.385Z,8.5
2022-10-21T02:46:06.233Z,8.5
2022-10-21T02:48:13.331Z,8.5
2022-10-21T02:49:17.046Z,8.5
2022-10-21T02:50:19.926Z,8.6
2022-10-21T02:51:23.657Z,8.5
2022-10-21T02:52:26.523Z,8.5
2022-10-21T02:53:30.223Z,8.5
2022-10-21T02:54:33.373Z,8.5
2022-10-21T02:55:37.095Z,8.5
2022-10-21T02:56:39.612Z,8.5
2022-10-21T02:57:43.038Z,8.5
2022-10-21T02:58:45.623Z,8.5
2022-10-21T02:59:48.330Z,8.5
2022-10-21T03:00:51.989Z,8.5
2022-10-21T03:01:55.629Z,8.6
2022-10-21T03:02:58.819Z,8.6
2022-10-21T03:04:02.111Z,8.6
2022-10-21T03:05:05.105Z,8.6
2022-10-21T03:06:07.907Z,8.6
2022-10-21T03:07:11.171Z,8.6
2022-10-21T03:08:13.893Z,8.6
2022-10-21T03:09:16.767Z,8.6
2022-10-21T03:10:19.283Z,8.6
2022-10-21T03:11:22.710Z,8.6
2022-10-21T03:12:25.427Z,8.6
2022-10-21T03:13:28.765Z,8.6
2022-10-21T03:14:31.620Z,8.6
2022-10-21T03:15:34.329Z,8.6
2022-10-21T03:16:37.225Z,8.6
2022-10-21T03:17:42.407Z,8.6
2022-10-21T03:18:46.246Z,8.6
2022-10-21T03:19:48.981Z,8.6
2022-10-21T03:20:51.777Z,8.6
2022-10-21T03:21:54.877Z,8.6
2022-10-21T03:22:57.396Z,8.6
2022-10-21T03:23:59.911Z,8.6
2022-10-21T03:25:02.346Z,8.6
2022-10-21T03:26:05.622Z,8.6
2022-10-21T03:27:08.390Z,8.6
2022-10-21T03:28:10.794Z,8.6
2022-10-21T03:29:14.195Z,8.6
2022-10-21T03:30:17.436Z,8.6
2022-10-21T03:31:20.503Z,8.6
2022-10-21T03:32:23.701Z,8.6
2022-10-21T03:33:27.093Z,8.6
2022-10-21T03:34:30.567Z,8.6
2022-10-21T03:35:33.463Z,8.6
2022-10-21T03:36:37.065Z,8.6
2022-10-21T03:37:39.907Z,8.6
2022-10-21T03:38:42.610Z,8.5
2022-10-21T03:39:45.754Z,8.5
2022-10-21T03:40:48.552Z,8.5
2022-10-21T03:41:51.895Z,8.5
2022-10-21T03:42:54.767Z,8.5
2022-10-21T03:43:57.757Z,8.5
2022-10-21T03:45:00.619Z,8.5
2022-10-21T03:46:03.687Z,8.4
2022-10-21T03:47:06.585Z,8.5
2022-10-21T03:48:10.024Z,8.4
2022-10-21T03:49:23.379Z,8.5
2022-10-21T03:50:28.474Z,8.5
2022-10-21T03:51:31.842Z,8.5
2022-10-21T03:52:34.353Z,8.4
2022-10-21T03:53:45.298Z,8.5
2022-10-21T03:54:48.380Z,8.5
2022-10-21T03:55:58.236Z,8.4
2022-10-21T03:57:00.754Z,8.4
2022-10-21T03:58:03.606Z,8.4
2022-10-21T03:59:06.362Z,8.5
2022-10-21T04:00:09.561Z,8.5
2022-10-21T04:01:13.556Z,8.5
2022-10-21T04:02:16.512Z,8.5
2022-10-21T04:03:20.544Z,8.5
2022-10-21T04:04:23.982Z,8.5
2022-10-21T04:05:27.086Z,8.5
2022-10-21T04:06:30.594Z,8.5
2022-10-21T04:07:33.757Z,8.5
2022-10-21T04:08:37.150Z,8.5
2022-10-21T04:09:40.530Z,8.5
2022-10-21T04:10:43.914Z,8.5
2022-10-21T04:11:47.643Z,8.5
2022-10-21T04:12:50.591Z,8.5
2022-10-21T04:13:53.575Z,8.5
2022-10-21T04:14:56.633Z,8.5
2022-10-21T04:15:59.806Z,8.5
2022-10-21T04:17:09.263Z,8.4
2022-10-21T04:18:12.989Z,8.4
2022-10-21T04:19:15.799Z,8.4
2022-10-21T04:20:18.755Z,8.4
2022-10-21T04:21:25.309Z,8.4
2022-10-21T04:22:28.596Z,8.4
2022-10-21T04:23:31.416Z,8.4
2022-10-21T04:24:34.780Z,8.4
2022-10-21T04:25:37.931Z,8.4
2022-10-21T04:26:40.827Z,8.4
2022-10-21T04:27:43.614Z,8.4
2022-10-21T04:28:46.602Z,8.4
2022-10-21T04:29:49.462Z,8.4
2022-10-21T04:30:53.084Z,8.4
2022-10-21T04:32:59.043Z,8.4
2022-10-21T04:34:02.381Z,8.4
2022-10-21T04:35:05.370Z,8.4
2022-10-21T04:36:08.410Z,8.4
2022-10-21T04:37:11.549Z,8.4
2022-10-21T04:38:15.004Z,8.5
2022-10-21T04:39:18.391Z,8.5
2022-10-21T04:40:21.709Z,8.5
2022-10-21T04:41:25.070Z,8.5
2022-10-21T04:43:31.161Z,8.5
2022-10-21T04:44:34.344Z,8.5
2022-10-21T04:45:37.499Z,8.5
2022-10-21T04:46:40.927Z,8.5
2022-10-21T04:47:44.163Z,8.4
2022-10-21T04:48:46.654Z,8.5
2022-10-21T04:49:49.792Z,8.5
2022-10-21T04:50:52.805Z,8.5
2022-10-21T04:51:56.235Z,8.4
2022-10-21T04:52:59.616Z,8.5
2022-10-21T04:54:03.094Z,8.5
2022-10-21T04:55:06.923Z,8.4
2022-10-21T04:56:09.204Z,8.4
2022-10-21T04:57:12.345Z,8.4
2022-10-21T04:58:23.497Z,8.4
2022-10-21T04:59:27.125Z,8.4
2022-10-21T05:00:30.505Z,8.4
2022-10-21T05:01:33.864Z,8.3
2022-10-21T05:02:37.224Z,8.3
2022-10-21T05:03:40.970Z,8.3
2022-10-21T05:04:44.398Z,8.3
2022-10-21T05:05:47.472Z,8.3
2022-10-21T05:06:50.668Z,8.3
2022-10-21T05:07:54.682Z,8.3
2022-10-21T05:08:58.524Z,8.3
2022-10-21T05:10:02.320Z,8.3
2022-10-21T05:11:05.329Z,8.3
2022-10-21T05:12:08.121Z,8.3
2022-10-21T05:13:11.845Z,8.3
2022-10-21T05:14:23.481Z,8.3
2022-10-21T05:15:27.122Z,8.3
2022-10-21T05:16:29.640Z,8.3
2022-10-21T05:17:33.069Z,8.3
2022-10-21T05:18:36.583Z,8.3
2022-10-21T05:19:39.460Z,8.2
2022-10-21T05:20:42.835Z,8.2
2022-10-21T05:21:45.914Z,8.3
2022-10-21T05:22:49.152Z,8.3
2022-10-21T05:23:52.605Z,8.3
2022-10-21T05:24:55.788Z,8.3
2022-10-21T05:25:59.190Z,8.3
2022-10-21T05:27:02.414Z,8.3
2022-10-21T05:28:04.935Z,8.2
2022-10-21T05:29:07.721Z,8.2
2022-10-21T05:30:10.600Z,8.2
2022-10-21T05:31:13.401Z,8.2
2022-10-21T05:32:16.654Z,8.2
2022-10-21T05:33:18.902Z,8.3
2022-10-21T05:34:21.768Z,8.3
2022-10-21T05:35:24.198Z,8.3
2022-10-21T05:36:27.258Z,8.3
2022-10-21T05:37:30.224Z,8.3
2022-10-21T05:38:33.302Z,8.3
2022-10-21T05:39:36.505Z,8.3
2022-10-21T05:40:39.755Z,8.3
2022-10-21T05:41:49.323Z,8.3
2022-10-21T05:42:52.770Z,8.3
2022-10-21T05:43:56.221Z,8.3
2022-10-21T05:44:59.301Z,8.3
2022-10-21T05:46:02.017Z,8.3
2022-10-21T05:47:05.774Z,8.3
2022-10-21T05:48:08.278Z,8.3
2022-10-21T05:49:11.344Z,8.3
2022-10-21T05:50:14.626Z,8.3
2022-10-21T05:51:18.023Z,8.3
2022-10-21T05:52:21.204Z,8.4
2022-10-21T05:53:23.988Z,8.4
2022-10-21T05:54:27.710Z,8.4
2022-10-21T05:55:31.342Z,8.4
2022-10-21T05:56:34.446Z,8.4
2022-10-21T05:57:37.956Z,8.4
2022-10-21T05:58:40.661Z,8.4
2022-10-21T05:59:43.528Z,8.4
2022-10-21T06:00:46.492Z,8.4
2022-10-21T06:01:49.487Z,8.4
2022-10-21T06:02:52.628Z,8.4
2022-10-21T06:03:55.495Z,8.4
2022-10-21T06:04:57.725Z,8.5
2022-10-21T06:06:00.896Z,8.5
2022-10-21T06:07:03.438Z,8.5
2022-10-21T06:08:05.944Z,8.5
2022-10-21T06:09:10.064Z,8.5
2022-10-21T06:10:13.295Z,8.5
2022-10-21T06:11:16.644Z,8.5
2022-10-21T06:12:20.410Z,8.5
2022-10-21T06:13:24.453Z,8.5
2022-10-21T06:14:27.924Z,8.5
2022-10-21T06:15:30.449Z,8.5
2022-10-21T06:16:33.828Z,8.6
2022-10-21T06:17:36.877Z,8.5
2022-10-21T06:18:40.939Z,8.6
2022-10-21T06:19:52.299Z,8.6
2022-10-21T06:20:55.023Z,8.6
2022-10-21T06:21:58.664Z,8.6
2022-10-21T06:23:01.104Z,8.5
2022-10-21T06:24:04.257Z,8.5
2022-10-21T06:25:07.465Z,8.5
2022-10-21T06:26:10.390Z,8.5
2022-10-21T06:27:14.094Z,8.6
2022-10-21T06:28:16.573Z,8.6
2022-10-21T06:29:20.349Z,8.6
2022-10-21T06:30:23.251Z,8.6
2022-10-21T06:31:24.933Z,8.7
2022-10-21T06:32:27.996Z,8.6
2022-10-21T06:33:30.827Z,8.6
2022-10-21T06:34:33.701Z,8.6
2022-10-21T06:35:36.803Z,8.7
2022-10-21T06:36:39.319Z,8.7
2022-10-21T06:37:42.625Z,8.7
2022-10-21T06:38:45.419Z,8.7
2022-10-21T06:39:48.587Z,8.7
2022-10-21T06:40:51.764Z,8.8
2022-10-21T06:41:55.464Z,8.8
2022-10-21T06:42:59.259Z,8.7
2022-10-21T06:44:02.666Z,8.7
2022-10-21T06:45:06.418Z,8.7
2022-10-21T06:46:08.692Z,8.8
2022-10-21T06:47:12.027Z,8.8
2022-10-21T06:48:15.419Z,8.8
2022-10-21T06:49:18.074Z,8.8
2022-10-21T06:50:21.792Z,8.8
2022-10-21T06:51:24.581Z,8.8
2022-10-21T06:52:27.850Z,8.8
2022-10-21T06:53:35.268Z,8.8
2022-10-21T06:54:42.129Z,8.8
2022-10-21T06:55:45.630Z,8.8
2022-10-21T06:56:48.879Z,8.9
2022-10-21T06:57:51.764Z,8.9
2022-10-21T06:58:54.923Z,8.9
2022-10-21T06:59:58.391Z,8.9
2022-10-21T07:01:01.924Z,8.9
2022-10-21T07:02:04.815Z,8.9
2022-10-21T07:03:07.909Z,8.9
2022-10-21T07:04:11.637Z,8.8
2022-10-21T07:05:15.065Z,8.8
2022-10-21T07:06:18.054Z,8.8
2022-10-21T07:07:21.126Z,8.9
2022-10-21T07:09:00.372Z,8.9
2022-10-21T07:10:03.683Z,8.8
2022-10-21T07:11:07.103Z,8.8
2022-10-21T07:12:09.809Z,8.8
2022-10-21T07:13:13.003Z,8.8
2022-10-21T07:14:16.450Z,8.9
2022-10-21T07:15:19.851Z,8.9
2022-10-21T07:16:23.689Z,8.9
2022-10-21T07:17:26.825Z,9
2022-10-21T07:18:30.154Z,9
2022-10-21T07:19:33.294Z,9.1
2022-10-21T07:20:36.448Z,9
2022-10-21T07:21:39.071Z,9
2022-10-21T07:22:42.340Z,9
2022-10-21T07:23:44.579Z,9
2022-10-21T07:24:47.720Z,9
2022-10-21T07:25:51.184Z,9.1
2022-10-21T07:26:53.970Z,9
2022-10-21T07:27:57.128Z,9.1
2022-10-21T07:28:59.947Z,9.1
2022-10-21T07:30:03.611Z,9.1
2022-10-21T07:31:06.863Z,9.2
2022-10-21T07:32:10.280Z,9.2
2022-10-21T07:33:13.457Z,9.2
2022-10-21T07:34:16.415Z,9.2
2022-10-21T07:35:19.481Z,9.2
2022-10-21T07:36:22.281Z,9.2
2022-10-21T07:37:25.739Z,9.2
2022-10-21T07:38:28.539Z,9.3
2022-10-21T07:39:31.056Z,9.3
2022-10-21T07:40:33.957Z,9.3
2022-10-21T07:41:36.752Z,9.3
2022-10-21T07:42:39.348Z,9.3
2022-10-21T07:43:42.767Z,9.3
2022-10-21T07:44:45.497Z,9.4
2022-10-21T07:45:48.713Z,9.4
2022-10-21T07:46:52.122Z,9.4
2022-10-21T07:47:55.801Z,9.4
2022-10-21T07:48:59.100Z,9.5
2022-10-21T07:50:02.209Z,9.5
2022-10-21T07:51:05.636Z,9.5
2022-10-21T07:52:09.394Z,9.5
2022-10-21T07:53:16.746Z,9.6
2022-10-21T07:54:20.339Z,9.6
2022-10-21T07:55:23.707Z,9.7
2022-10-21T07:56:25.932Z,9.8
2022-10-21T07:57:29.275Z,9.8
2022-10-21T07:58:32.479Z,9.8
2022-10-21T07:59:35.864Z,9.9
2022-10-21T08:00:39.868Z,9.9
2022-10-21T08:01:44.055Z,10
2022-10-21T08:02:48.046Z,10
2022-10-21T08:03:51.351Z,10.1
2022-10-21T08:04:54.452Z,10.1
2022-10-21T08:05:57.637Z,10.1
2022-10-21T08:07:01.013Z,10.1
2022-10-21T08:08:04.194Z,10.2
2022-10-21T08:09:08.099Z,10.2
2022-10-21T08:10:11.198Z,10.3
2022-10-21T08:11:15.567Z,10.3
2022-10-21T08:12:18.732Z,10.4
2022-10-21T08:13:21.478Z,10.4
2022-10-21T08:14:24.578Z,10.4
2022-10-21T08:15:26.902Z,10.5
2022-10-21T08:16:29.912Z,10.5
2022-10-21T08:17:33.558Z,10.5
2022-10-21T08:18:36.810Z,10.5
2022-10-21T08:19:40.566Z,10.5
2022-10-21T08:20:43.101Z,10.5
2022-10-21T08:21:45.883Z,10.3
2022-10-21T08:22:49.306Z,10.4
2022-10-21T08:23:52.025Z,10.4
2022-10-21T08:24:54.825Z,10.4
2022-10-21T08:25:58.082Z,10.4
2022-10-21T08:27:01.153Z,10.5
2022-10-21T08:28:04.030Z,10.4
2022-10-21T08:29:07.312Z,10.5
2022-10-21T08:30:09.932Z,10.5
2022-10-21T08:31:12.729Z,10.5
2022-10-21T08:32:15.838Z,10.4
2022-10-21T08:33:19.101Z,10.4
2022-10-21T08:34:22.838Z,10.4
2022-10-21T08:35:26.622Z,10.4
2022-10-21T08:36:29.986Z,10.4
2022-10-21T08:37:33.097Z,10.4
2022-10-21T08:38:35.942Z,10.5
2022-10-21T08:39:38.828Z,10.5
2022-10-21T08:40:41.991Z,10.5
2022-10-21T08:41:44.983Z,10.6
2022-10-21T08:42:47.903Z,10.6
2022-10-21T08:43:51.358Z,10.6
2022-10-21T08:44:54.696Z,10.6
2022-10-21T08:45:57.920Z,10.7
2022-10-21T08:47:00.994Z,10.7
2022-10-21T08:48:04.568Z,10.6
2022-10-21T08:49:08.287Z,10.6
2022-10-21T08:50:11.192Z,10.6
2022-10-21T08:51:14.882Z,10.7
2022-10-21T08:52:18.901Z,10.7
2022-10-21T08:53:22.319Z,10.8
2022-10-21T08:54:25.114Z,10.8
2022-10-21T08:55:27.904Z,10.8
2022-10-21T08:56:31.282Z,10.9
2022-10-21T08:57:34.541Z,10.9
2022-10-21T08:58:38.186Z,10.9
2022-10-21T08:59:41.361Z,10.8
2022-10-21T09:00:44.263Z,10.8
2022-10-21T09:01:47.958Z,10.8
2022-10-21T09:02:51.850Z,10.8
2022-10-21T09:03:55.696Z,10.8
2022-10-21T09:04:59.211Z,10.8
2022-10-21T09:06:02.751Z,10.8
2022-10-21T09:07:06.250Z,10.7
2022-10-21T09:08:09.235Z,10.8
2022-10-21T09:09:12.139Z,10.7
2022-10-21T09:10:15.569Z,10.7
2022-10-21T09:11:18.933Z,10.7
2022-10-21T09:12:21.926Z,10.8
2022-10-21T09:13:25.634Z,10.8
2022-10-21T09:15:31.653Z,10.8
2022-10-21T09:16:34.721Z,10.8
2022-10-21T09:17:40.127Z,10.8
2022-10-21T09:18:43.682Z,10.8
2022-10-21T09:19:46.306Z,10.8
2022-10-21T09:21:06.045Z,10.8
2022-10-21T09:22:37.187Z,10.9
2022-10-21T09:23:40.590Z,10.9
2022-10-21T09:24:44.013Z,10.9
2022-10-21T09:25:47.455Z,10.9
2022-10-21T09:26:51.198Z,10.9
2022-10-21T09:27:59.451Z,10.9
2022-10-21T09:29:03.775Z,10.9
2022-10-21T09:30:07.504Z,10.9
2022-10-21T09:31:10.924Z,10.9
2022-10-21T09:32:13.789Z,11
2022-10-21T09:33:16.497Z,11
2022-10-21T09:34:19.352Z,11.1
2022-10-21T09:35:22.719Z,11
2022-10-21T09:36:25.969Z,11.1
2022-10-21T09:37:37.632Z,11.1
2022-10-21T09:38:41.449Z,11.1
2022-10-21T09:39:44.883Z,11
2022-10-21T09:40:48.885Z,11.1
2022-10-21T09:42:23.010Z,11.1
2022-10-21T09:43:50.960Z,11.1
2022-10-21T09:44:53.746Z,11.1
2022-10-21T09:45:56.738Z,11.1
2022-10-21T09:46:59.702Z,11.1
2022-10-21T09:48:03.357Z,11.2
2022-10-21T09:50:09.139Z,11.2
2022-10-21T09:51:12.770Z,11.2
2022-10-21T09:52:16.507Z,11.3
2022-10-21T09:53:28.000Z,11.3
2022-10-21T09:54:31.016Z,11.3
2022-10-21T09:55:34.104Z,11.4
2022-10-21T09:56:37.446Z,11.4
2022-10-21T09:57:40.542Z,11.4
2022-10-21T09:58:43.906Z,11.5
2022-10-21T09:59:47.029Z,11.5
2022-10-21T10:00:50.298Z,11.5
2022-10-21T10:01:54.022Z,11.6
2022-10-21T10:02:56.909Z,11.6
2022-10-21T10:04:00.541Z,11.7
2022-10-21T10:05:03.635Z,11.8
2022-10-21T10:06:06.627Z,11.9
2022-10-21T10:07:09.448Z,12
2022-10-21T10:08:12.628Z,12.1
2022-10-21T10:09:16.690Z,12.3
2022-10-21T10:10:20.158Z,12.3
2022-10-21T10:11:23.352Z,12.4
2022-10-21T10:12:26.688Z,12.4
2022-10-21T10:13:30.143Z,12.4
2022-10-21T10:14:33.307Z,12.5
2022-10-21T10:15:36.465Z,12.6
2022-10-21T10:16:40.074Z,12.6
2022-10-21T10:17:43.525Z,12.6
2022-10-21T10:18:47.733Z,12.7
2022-10-21T10:19:50.533Z,12.8
2022-10-21T10:20:53.968Z,12.9
2022-10-21T10:21:56.501Z,13
2022-10-21T10:22:59.672Z,13.1
2022-10-21T10:24:03.105Z,13.1
2022-10-21T10:25:06.541Z,13.1
2022-10-21T10:26:09.266Z,13.2
2022-10-21T10:27:12.714Z,13.2
2022-10-21T10:28:16.054Z,13.2
2022-10-21T10:29:19.215Z,13.2
2022-10-21T10:30:21.941Z,13.2
2022-10-21T10:31:25.016Z,13.2
2022-10-21T10:32:27.717Z,13.2
2022-10-21T10:33:30.797Z,13.2
2022-10-21T10:34:34.600Z,13.2
2022-10-21T10:35:37.940Z,13.2
2022-10-21T10:36:41.083Z,13.1
2022-10-21T10:37:44.281Z,13.1
2022-10-21T10:38:47.109Z,13.2
2022-10-21T10:39:50.262Z,13.2
2022-10-21T10:40:59.812Z,13.2
2022-10-21T10:42:02.929Z,13.3
2022-10-21T10:43:06.464Z,13.4
2022-10-21T10:44:08.978Z,13.3
2022-10-21T10:45:12.687Z,13.4
2022-10-21T10:46:15.195Z,13.4
2022-10-21T10:47:18.348Z,13.4
2022-10-21T10:48:21.770Z,13.4
2022-10-21T10:49:24.938Z,13.4
2022-10-21T10:50:28.434Z,13.4
2022-10-21T10:51:31.617Z,13.4
2022-10-21T10:52:34.764Z,13.4
2022-10-21T10:53:37.282Z,13.4
2022-10-21T10:54:40.544Z,13.5
2022-10-21T10:55:44.486Z,13.5
2022-10-21T10:56:48.254Z,13.6
2022-10-21T10:58:21.128Z,13.6
2022-10-21T10:59:31.828Z,13.6
2022-10-21T11:00:35.293Z,13.5
2022-10-21T11:01:38.654Z,13.6
2022-10-21T11:02:42.240Z,13.6
2022-10-21T11:03:45.962Z,13.5
2022-10-21T11:04:49.039Z,13.4
2022-10-21T11:05:52.205Z,13.4
2022-10-21T11:06:54.710Z,13.4
2022-10-21T11:07:57.580Z,13.4
2022-10-21T11:09:01.403Z,13.5
2022-10-21T11:10:04.342Z,13.5
2022-10-21T11:11:07.156Z,13.5
2022-10-21T11:12:11.211Z,13.5
2022-10-21T11:13:14.114Z,13.5
2022-10-21T11:14:24.222Z,13.5
2022-10-21T11:15:27.328Z,13.5
2022-10-21T11:17:01.367Z,13.6
2022-10-21T11:18:26.489Z,13.6
2022-10-21T11:19:30.120Z,13.6
2022-10-21T11:20:33.184Z,13.6
2022-10-21T11:21:36.335Z,13.6
2022-10-21T11:22:39.322Z,13.6
2022-10-21T11:23:42.751Z,13.6
2022-10-21T11:24:45.813Z,13.6
2022-10-21T11:25:48.745Z,13.5
2022-10-21T11:26:52.112Z,13.5
2022-10-21T11:27:55.906Z,13.4
2022-10-21T11:29:06.343Z,13.4
2022-10-21T11:30:09.554Z,13.3
2022-10-21T11:31:13.097Z,13.4
2022-10-21T11:32:16.121Z,13.4
2022-10-21T11:33:19.544Z,13.4
2022-10-21T11:34:22.604Z,13.4
2022-10-21T11:35:25.946Z,13.4
2022-10-21T11:36:29.018Z,13.3
2022-10-21T11:37:31.736Z,13.4
2022-10-21T11:38:34.124Z,13.4
2022-10-21T11:39:37.182Z,13.3
2022-10-21T11:40:40.903Z,13.3
2022-10-21T11:41:44.447Z,13.3
2022-10-21T11:42:47.489Z,13.3
2022-10-21T11:43:51.872Z,13.2
2022-10-21T11:44:55.032Z,13.2
2022-10-21T11:45:58.237Z,13.3
2022-10-21T11:47:01.539Z,13.2
2022-10-21T11:48:04.929Z,13.2
2022-10-21T11:49:07.738Z,13.3
2022-10-21T11:50:11.763Z,13.3
2022-10-21T11:51:17.530Z,13.3
2022-10-21T11:52:20.771Z,13.4
2022-10-21T11:53:23.826Z,13.4
2022-10-21T11:54:27.598Z,13.5
2022-10-21T11:55:31.303Z,13.5
2022-10-21T11:56:34.515Z,13.5
2022-10-21T11:57:37.342Z,13.5
2022-10-21T11:58:41.212Z,13.5
2022-10-21T12:00:00.604Z,13.5
2022-10-21T12:01:04.102Z,13.5
2022-10-21T12:02:08.366Z,13.5
2022-10-21T12:03:12.113Z,13.6
2022-10-21T12:04:15.807Z,13.6
2022-10-21T12:05:18.891Z,13.7
2022-10-21T12:06:21.830Z,13.8
2022-10-21T12:07:25.010Z,13.9
2022-10-21T12:08:28.147Z,13.9
2022-10-21T12:09:31.205Z,13.9
2022-10-21T12:10:34.005Z,13.9
2022-10-21T12:11:36.804Z,14
2022-10-21T12:12:42.662Z,14
2022-10-21T12:13:46.624Z,14
2022-10-21T12:14:50.662Z,14.1
2022-10-21T12:15:54.096Z,14.2
2022-10-21T12:16:57.273Z,14.3
2022-10-21T12:18:00.602Z,14.4
2022-10-21T12:19:03.142Z,14.4
2022-10-21T12:20:05.802Z,14.5
2022-10-21T12:21:09.181Z,14.5
2022-10-21T12:22:11.983Z,14.4
2022-10-21T12:23:15.359Z,14.4
2022-10-21T12:24:18.498Z,14.3
2022-10-21T12:25:21.213Z,14.4
2022-10-21T12:26:24.736Z,14.4
2022-10-21T12:27:27.911Z,14.3
2022-10-21T12:28:30.747Z,14.3
2022-10-21T12:29:34.971Z,14.2
2022-10-21T12:30:38.731Z,14.2
2022-10-21T12:31:42.453Z,14.1
2022-10-21T12:32:46.022Z,14.2
2022-10-21T12:33:49.468Z,14.2
2022-10-21T12:34:52.659Z,14.2
2022-10-21T12:35:55.738Z,14.2
2022-10-21T12:36:59.462Z,14.2
2022-10-21T12:38:02.905Z,14.3
2022-10-21T12:39:05.901Z,14.3
2022-10-21T12:40:08.990Z,14.4
2022-10-21T12:41:12.415Z,14.4
2022-10-21T12:42:15.561Z,14.5
2022-10-21T12:43:18.155Z,14.5
2022-10-21T12:44:20.614Z,14.5
2022-10-21T12:45:24.275Z,14.5
2022-10-21T12:46:28.599Z,14.6
2022-10-21T12:47:32.037Z,14.6
2022-10-21T12:48:36.075Z,14.7
2022-10-21T12:49:39.461Z,14.8
2022-10-21T12:50:42.603Z,14.9
2022-10-21T12:51:45.322Z,14.8
2022-10-21T12:52:48.047Z,14.8
2022-10-21T12:54:54.452Z,14.8
2022-10-21T12:55:57.980Z,14.9
2022-10-21T12:57:01.427Z,14.9
2022-10-21T12:58:04.355Z,14.9
2022-10-21T12:59:07.154Z,14.9
2022-10-21T13:00:10.164Z,14.9
2022-10-21T13:01:14.183Z,14.9
2022-10-21T13:02:18.027Z,14.8
2022-10-21T13:03:21.653Z,14.8
2022-10-21T13:04:25.377Z,14.9
2022-10-21T13:05:28.785Z,14.9
2022-10-21T13:06:31.378Z,14.9
2022-10-21T13:07:34.524Z,14.9
2022-10-21T13:08:38.554Z,14.9
2022-10-21T13:09:41.797Z,14.9
2022-10-21T13:10:44.666Z,14.9
2022-10-21T13:11:47.468Z,15
2022-10-21T13:12:50.565Z,14.9
2022-10-21T13:13:53.629Z,14.9
2022-10-21T13:14:56.724Z,14.8
2022-10-21T13:16:00.087Z,14.8
2022-10-21T13:17:03.347Z,14.8
2022-10-21T13:18:07.199Z,14.8
2022-10-21T13:19:10.656Z,14.8
2022-10-21T13:20:13.466Z,14.8
2022-10-21T13:21:22.734Z,14.8
2022-10-21T13:22:26.113Z,14.8
2022-10-21T13:23:29.564Z,14.8
2022-10-21T13:24:32.905Z,14.8
2022-10-21T13:25:35.809Z,14.7
2022-10-21T13:26:39.071Z,14.7
2022-10-21T13:27:41.938Z,14.7
2022-10-21T13:28:45.320Z,14.7
2022-10-21T13:29:49.322Z,14.7
2022-10-21T13:30:52.495Z,14.7
2022-10-21T13:31:56.094Z,14.7
2022-10-21T13:33:00.345Z,14.7
2022-10-21T13:34:04.576Z,14.7
2022-10-21T13:35:08.815Z,14.8
2022-10-21T13:36:12.687Z,14.7
2022-10-21T13:37:16.031Z,14.6
2022-10-21T13:38:19.284Z,14.6
2022-10-21T13:39:23.143Z,14.6
2022-10-21T13:40:27.213Z,14.5
2022-10-21T13:41:30.933Z,14.5
2022-10-21T13:42:33.727Z,14.6
2022-10-21T13:43:36.796Z,14.6
2022-10-21T13:44:39.399Z,14.6
2022-10-21T13:45:42.668Z,14.6
2022-10-21T13:46:45.680Z,14.5
2022-10-21T13:47:48.421Z,14.5
2022-10-21T13:48:52.155Z,14.6
2022-10-21T13:49:55.430Z,14.6
2022-10-21T13:50:58.144Z,14.6
2022-10-21T13:52:01.597Z,14.6
2022-10-21T13:53:05.026Z,14.6
2022-10-21T13:54:08.016Z,14.6
2022-10-21T13:55:10.898Z,14.6
2022-10-21T13:56:13.692Z,14.5
2022-10-21T13:57:16.848Z,14.5
2022-10-21T13:58:20.611Z,14.4
2022-10-21T13:59:23.759Z,14.4
2022-10-21T14:00:26.848Z,14.4
2022-10-21T14:01:30.466Z,14.4
2022-10-21T14:02:33.765Z,14.4
2022-10-21T14:03:37.436Z,14.4
2022-10-21T14:04:41.564Z,14.4
2022-10-21T14:05:45.048Z,14.3
2022-10-21T14:06:47.838Z,14.4
2022-10-21T14:07:50.922Z,14.3
2022-10-21T14:08:54.744Z,14.3
2022-10-21T14:09:57.338Z,14.3
2022-10-21T14:11:01.506Z,14.3
2022-10-21T14:12:04.219Z,14.3
2022-10-21T14:13:07.108Z,14.3
2022-10-21T14:14:10.179Z,14.3
2022-10-21T14:15:14.246Z,14.3
2022-10-21T14:16:17.516Z,14.3
2022-10-21T14:17:20.044Z,14.4
2022-10-21T14:18:37.878Z,14.4
2022-10-21T14:19:41.076Z,14.4
2022-10-21T14:20:44.207Z,14.4
2022-10-21T14:21:47.711Z,14.4
2022-10-21T14:22:52.048Z,14.4
2022-10-21T14:23:55.130Z,14.4
2022-10-21T14:24:58.542Z,14.4
2022-10-21T14:26:01.716Z,14.4
2022-10-21T14:27:04.781Z,14.4
2022-10-21T14:28:08.235Z,14.4
2022-10-21T14:29:11.540Z,14.4
2022-10-21T14:30:14.631Z,14.4
2022-10-21T14:31:17.591Z,14.4
2022-10-21T14:32:20.386Z,14.4